Time;durP1;ratioP1;P1;durP2;ratioP2;P2;SDS_P1;SDS_P2;PMS_P1;PMS_P2;Temp;Humidity;BMP_temperature;BMP_pressure;BME280_temperature;BME280_humidity;BME280_pressure;Samples;Min_cycle;Max_cycle;Signal;HPM_P1;HPM_P2
2022/07/28 00:00:45;;;;;;;0.87;0.87;;;22.80;99.80;;;23.14;49.70;101474.59;4925860;28;97144;-47
2022/07/28 00:03:12;;;;;;;1.17;0.90;;;22.90;99.70;;;23.17;49.33;101469.00;4928579;28;98793;-49
2022/07/28 00:05:39;;;;;;;1.23;0.93;;;22.90;99.50;;;23.20;49.30;101476.00;4919741;28;97298;-44
2022/07/28 00:08:06;;;;;;;1.20;0.80;;;23.00;99.30;;;23.20;49.50;101466.09;4927427;28;97025;-44
2022/07/28 00:10:32;;;;;;;1.27;0.87;;;23.00;99.50;;;23.24;49.21;101470.25;4925922;28;97610;-48
2022/07/28 00:13:01;;;;;;;3.27;1.20;;;23.10;99.30;;;23.22;42.02;101458.75;4929130;28;97063;-44
2022/07/28 00:15:27;;;;;;;0.83;0.80;;;23.10;94.60;;;23.24;49.32;101462.16;4927247;28;97000;-49
2022/07/28 00:17:53;;;;;;;1.13;1.00;;;23.10;99.30;;;23.28;49.08;101462.78;4929581;28;97365;-48
2022/07/28 00:20:19;;;;;;;1.63;0.90;;;23.10;99.20;;;23.28;48.94;101458.25;4933304;28;97451;-47
2022/07/28 00:22:45;;;;;;;1.10;0.80;;;23.10;99.20;;;23.31;47.25;101458.06;4922169;28;96603;-44
2022/07/28 00:25:12;;;;;;;1.80;0.80;;;23.20;96.40;;;23.31;49.04;101455.38;4935188;28;99450;-44
2022/07/28 00:27:38;;;;;;;1.03;0.93;;;23.10;98.80;;;23.31;48.89;101458.06;4921510;28;97078;-47
2022/07/28 00:30:08;;;;;;;1.03;0.73;;;23.20;99.10;;;23.31;48.76;101452.66;4920551;28;113937;-47
2022/07/28 00:32:34;;;;;;;3.13;1.03;;;23.20;98.20;;;23.30;44.25;101450.09;4913054;28;97338;-44
2022/07/28 00:35:00;;;;;;;2.23;0.93;;;23.20;95.30;;;23.30;48.72;101455.47;4929448;28;97580;-44
2022/07/28 00:37:26;;;;;;;0.90;0.90;;;23.20;98.30;;;23.27;49.13;101448.47;4931149;28;96881;-47
2022/07/28 00:39:52;;;;;;;1.20;0.70;;;23.10;99.10;;;23.33;48.92;101450.72;4929152;28;97749;-49
2022/07/28 00:42:19;;;;;;;0.80;0.80;;;23.20;99.00;;;23.34;48.82;101441.66;4915179;28;118199;-48
2022/07/28 00:44:46;;;;;;;0.80;0.80;;;23.20;98.90;;;23.38;48.78;101443.13;4921778;28;97750;-44
2022/07/28 00:47:12;;;;;;;1.73;1.10;;;23.30;98.90;;;23.37;48.59;101437.88;4924266;28;97260;-46
2022/07/28 00:49:38;;;;;;;1.13;0.93;;;23.30;98.80;;;23.38;48.56;101432.38;4922535;28;98471;-46
2022/07/28 00:52:08;;;;;;;0.80;0.80;;;23.30;98.80;;;23.40;48.54;101430.41;4925941;28;96905;-46
2022/07/28 00:54:34;;;;;;;1.17;0.60;;;23.30;98.80;;;23.36;48.67;101428.94;4921105;28;100052;-46
2022/07/28 00:57:00;;;;;;;0.63;0.63;;;23.30;98.70;;;23.39;48.48;101434.06;4926314;28;97117;-46
2022/07/28 00:59:26;;;;;;;1.63;1.07;;;23.30;98.60;;;23.36;48.49;101436.16;4920564;28;97963;-44
2022/07/28 01:01:53;;;;;;;1.80;1.00;;;23.30;98.60;;;23.36;48.35;101428.09;4917304;28;102612;-44
2022/07/28 01:04:20;;;;;;;1.00;0.60;;;23.30;98.50;;;23.40;48.23;101435.78;4933756;28;97002;-47
2022/07/28 01:07:16;;;;;;;1.27;0.80;;;23.30;98.60;;;23.41;48.20;101425.88;4917269;28;96917;-44
2022/07/28 01:10:19;;;;;;;0.80;0.70;;;23.30;97.90;;;23.43;48.20;101434.69;4918244;28;97662;-44
2022/07/28 01:13:20;;;;;;;0.70;0.60;;;23.30;98.50;;;23.41;47.96;101433.97;4927444;28;97313;-44
2022/07/28 01:16:06;;;;;;;1.30;0.70;;;23.30;98.50;;;23.41;48.06;101425.88;4920633;28;97202;-50
2022/07/28 01:18:42;;;;;;;1.27;0.80;;;23.30;98.40;;;23.38;48.16;101420.75;4934229;28;96683;-44
2022/07/28 01:21:13;;;;;;;0.90;0.70;;;23.30;98.50;;;23.39;48.18;101427.84;4934548;28;97711;-47
2022/07/28 01:23:53;;;;;;;1.07;0.70;;;23.30;98.40;;;23.43;47.94;101430.19;4919726;28;96991;-47
2022/07/28 01:26:46;;;;;;;2.37;0.77;;;23.30;98.40;;;23.45;47.89;101432.75;4931958;28;97528;-47
2022/07/28 01:29:43;;;;;;;2.13;0.70;;;23.30;98.10;;;23.44;47.89;101426.53;4929276;28;96617;-44
2022/07/28 01:32:22;;;;;;;1.07;0.70;;;23.30;98.30;;;23.41;48.02;101426.72;4920552;28;103368;-48
2022/07/28 01:35:00;;;;;;;2.00;0.80;;;23.30;98.40;;;23.31;48.49;101420.38;4929944;28;102653;-44
2022/07/28 01:37:30;;;;;;;0.87;0.77;;;23.30;98.50;;;23.33;48.31;101423.78;4913091;28;96718;-46
2022/07/28 01:40:06;;;;;;;1.13;0.80;;;23.30;98.40;;;23.32;48.05;101416.69;4929970;28;96725;-45
2022/07/28 01:42:38;;;;;;;0.80;0.70;;;23.30;98.40;;;23.36;48.00;101412.78;4924865;28;98937;-44
2022/07/28 01:45:07;;;;;;;1.37;0.70;;;23.30;98.40;;;23.38;47.99;101412.66;4934918;28;96992;-45
2022/07/28 01:47:34;;;;;;;0.67;0.67;;;23.30;98.30;;;23.35;48.15;101420.97;4923031;28;97263;-46
2022/07/28 01:50:05;;;;;;;0.70;0.60;;;23.30;98.30;;;23.38;47.90;101421.59;4926401;28;97299;-44
2022/07/28 01:52:33;;;;;;;1.47;0.70;;;23.30;98.20;;;23.41;47.81;101410.59;4927365;28;98918;-47
2022/07/28 01:55:01;;;;;;;0.80;0.67;;;23.40;98.20;;;23.43;47.76;101408.66;4920362;28;97317;-47
2022/07/28 01:57:31;;;;;;;0.70;0.70;;;23.40;98.20;;;23.45;47.77;101411.22;4915457;28;97336;-44
2022/07/28 01:59:58;;;;;;;2.30;0.80;;;23.40;98.10;;;23.44;47.80;101404.97;4925531;28;103465;-49
2022/07/28 02:02:26;;;;;;;1.77;0.70;;;23.40;98.10;;;23.43;47.87;101403.28;4919689;28;98218;-52
2022/07/28 02:04:54;;;;;;;1.67;0.70;;;23.40;98.10;;;23.49;47.60;101409.16;4931109;28;96868;-48
2022/07/28 02:07:22;;;;;;;1.67;0.83;;;23.40;98.10;;;23.40;48.12;101399.94;4919501;28;96843;-46
2022/07/28 02:09:50;;;;;;;1.47;0.80;;;23.40;98.60;;;23.42;47.80;101395.28;4928039;28;96995;-50
2022/07/28 02:12:19;;;;;;;1.30;0.70;;;23.40;98.20;;;23.40;48.20;101398.09;4919056;28;97635;-44
2022/07/28 02:14:49;;;;;;;3.07;0.90;;;23.40;98.30;;;23.43;47.84;101392.50;4916337;28;98031;-49
2022/07/28 02:17:19;;;;;;;1.07;0.60;;;23.40;98.10;;;23.42;47.76;101388.06;4920722;28;97341;-47
2022/07/28 02:19:47;;;;;;;1.33;0.73;;;23.40;98.10;;;23.43;47.78;101384.44;4928019;28;96993;-46
2022/07/28 02:22:15;;;;;;;1.43;0.90;;;23.40;98.10;;;23.46;47.51;101386.03;4919748;28;98203;-50
2022/07/28 02:24:43;;;;;;;1.83;0.80;;;23.40;98.00;;;23.43;47.74;101388.91;4933956;28;98600;-46
2022/07/28 02:27:40;;;;;;;1.88;0.90;;;23.40;98.00;;;23.49;47.50;101384.91;4936539;28;97260;-49
2022/07/28 02:30:17;;;;;;;1.37;0.67;;;23.40;97.90;;;23.49;47.48;101374.13;4920441;28;97675;-47
2022/07/28 02:32:42;;;;;;;2.03;0.90;;;23.40;97.90;;;23.50;47.46;101381.25;4922591;28;97846;-46
2022/07/28 02:35:28;;;;;;;1.23;0.80;;;23.40;97.90;;;23.54;46.69;101374.63;4930400;28;97234;-47
2022/07/28 02:38:00;;;;;;;2.03;0.67;;;23.40;97.80;;;23.52;47.18;101374.75;4926851;28;96710;-50
2022/07/28 02:40:33;;;;;;;1.20;0.60;;;23.30;97.60;;;23.51;46.98;101377.56;4927436;28;96850;-46
2022/07/28 02:43:00;;;;;;;0.70;0.70;;;23.30;97.70;;;23.47;47.36;101371.56;4935961;28;97654;-46
2022/07/28 02:45:28;;;;;;;3.57;1.03;;;23.30;97.90;;;23.47;45.40;101370.72;4930877;28;97143;-48
2022/07/28 02:48:06;;;;;;;1.40;0.90;;;23.30;93.80;;;23.45;47.34;101377.09;4918559;28;97208;-48
2022/07/28 02:50:32;;;;;;;1.50;0.90;;;23.20;98.00;;;23.33;44.14;101371.78;4917951;28;96745;-49
2022/07/28 02:53:02;;;;;;;3.10;1.17;;;23.00;92.50;;;23.20;43.69;101373.72;4919193;28;96909;-47
2022/07/28 02:55:29;;;;;;;4.17;1.17;;;22.70;92.90;;;23.05;44.46;101373.94;4925390;28;98232;-45
2022/07/28 02:57:57;;;;;;;0.63;0.63;;;22.50;92.50;;;22.95;46.58;101374.75;4922899;28;96894;-47
2022/07/28 03:00:24;;;;;;;2.50;1.27;;;22.30;94.60;;;22.81;45.64;101379.31;4916400;28;98579;-45
2022/07/28 03:02:52;;;;;;;2.67;0.73;;;22.20;93.60;;;22.67;48.67;101366.03;4932972;28;97424;-49
2022/07/28 03:05:19;;;;;;;1.70;0.97;;;22.00;98.20;;;22.72;49.25;101371.09;4931119;28;97190;-51
2022/07/28 03:07:45;;;;;;;1.53;0.77;;;22.10;99.60;;;22.70;47.72;101365.81;4915194;28;97420;-44
2022/07/28 03:10:24;;;;;;;1.20;0.80;;;22.20;96.50;;;22.67;47.26;101368.72;4925324;28;97358;-50
2022/07/28 03:12:51;;;;;;;3.90;1.40;;;22.20;94.40;;;22.49;45.39;101368.28;4929484;28;103460;-47
2022/07/28 03:15:17;;;;;;;2.43;1.30;;;21.90;93.70;;;22.45;46.85;101371.31;4932368;28;97497;-46
2022/07/28 03:17:43;;;;;;;1.70;0.90;;;21.80;94.40;;;22.43;48.51;101373.28;4915900;28;97387;-46
2022/07/28 03:20:10;;;;;;;2.73;1.23;;;21.80;95.10;;;22.24;42.40;101379.13;4919607;28;96892;-47
2022/07/28 03:22:37;;;;;;;2.17;0.80;;;21.60;94.20;;;22.08;49.79;101374.00;4914574;28;97895;-47
2022/07/28 03:25:41;;;;;;;4.30;1.40;;;21.30;96.00;;;22.01;44.59;101377.22;4930472;28;97144;-49
2022/07/28 03:28:13;;;;;;;2.33;1.40;;;21.30;94.40;;;22.00;47.62;101380.88;4905258;28;97432;-47
2022/07/28 03:30:44;;;;;;;1.30;0.80;;;21.30;95.80;;;21.95;51.19;101379.38;4916316;28;97295;-49
2022/07/28 03:33:11;;;;;;;1.37;1.00;;;21.20;99.90;;;22.02;51.10;101382.50;4924558;28;97009;-45
2022/07/28 03:35:43;;;;;;;1.37;0.87;;;21.40;99.00;;;22.03;48.96;101386.88;4927448;28;97127;-45
2022/07/28 03:38:23;;;;;;;3.97;1.20;;;21.40;95.30;;;22.03;49.96;101386.88;4936101;28;96750;-47
2022/07/28 03:40:51;;;;;;;0.80;0.80;;;21.30;95.90;;;22.05;51.03;101389.47;4921380;28;97029;-46
2022/07/28 03:43:20;;;;;;;0.90;0.70;;;21.40;99.00;;;22.12;51.19;101388.06;4923848;28;97369;-44
2022/07/28 03:45:46;;;;;;;0.60;0.60;;;21.50;99.90;;;22.13;51.31;101392.47;4915438;28;102534;-46
2022/07/28 03:48:14;;;;;;;0.97;0.70;;;21.50;99.90;;;22.13;50.85;101382.63;4917487;28;97297;-44
2022/07/28 03:50:40;;;;;;;1.50;0.90;;;21.50;99.90;;;22.19;50.08;101379.47;4925387;28;97320;-44
2022/07/28 03:53:20;;;;;;;1.57;0.63;;;21.60;96.40;;;22.25;50.80;101381.69;4928472;28;98577;-48
2022/07/28 03:55:49;;;;;;;1.07;0.80;;;21.70;98.70;;;22.22;50.91;101392.66;4917665;28;97801;-44
2022/07/28 03:58:20;;;;;;;1.83;0.97;;;21.60;99.90;;;22.20;50.08;101389.25;4928754;28;96688;-46
2022/07/28 04:00:48;;;;;;;0.70;0.70;;;21.60;97.40;;;22.21;50.88;101388.28;4924388;28;97109;-45
2022/07/28 04:03:18;;;;;;;2.00;1.20;;;21.60;99.90;;;22.24;50.70;101382.66;4918641;28;97416;-46
2022/07/28 04:05:45;;;;;;;3.30;1.30;;;21.60;99.40;;;22.17;48.51;101384.09;4922379;28;96984;-44
2022/07/28 04:08:11;;;;;;;1.03;0.87;;;21.50;95.40;;;22.17;50.76;101392.16;4928172;28;97183;-48
2022/07/28 04:10:37;;;;;;;0.97;0.87;;;21.50;99.90;;;22.16;50.98;101390.44;4931598;28;97403;-45
2022/07/28 04:13:03;;;;;;;0.90;0.50;;;21.50;99.70;;;22.15;51.11;101391.41;4917902;28;98535;-49
2022/07/28 04:15:30;;;;;;;2.37;1.10;;;21.50;99.90;;;22.10;51.20;101390.88;4925906;28;97629;-48
2022/07/28 04:17:56;;;;;;;0.80;0.70;;;21.40;99.90;;;22.09;49.90;101389.16;4931192;28;97019;-44
2022/07/28 04:20:24;;;;;;;1.47;0.90;;;21.40;96.40;;;22.12;50.99;101391.59;4924403;28;97176;-53
2022/07/28 04:22:51;;;;;;;1.10;0.80;;;21.40;99.90;;;22.17;50.57;101384.09;4921683;28;101825;-48
2022/07/28 04:25:20;;;;;;;1.43;0.73;;;21.60;98.70;;;22.21;51.24;101380.19;4924797;28;97287;-46
2022/07/28 04:27:46;;;;;;;1.27;0.70;;;21.70;99.90;;;22.25;51.10;101381.69;4925512;28;97422;-47
2022/07/28 04:30:16;;;;;;;1.23;0.80;;;21.80;99.90;;;22.29;50.74;101374.28;4935184;28;96816;-47
2022/07/28 04:32:47;;;;;;;0.70;0.70;;;21.80;99.90;;;22.30;50.74;101377.84;4925637;28;103400;-44
2022/07/28 04:35:15;;;;;;;1.67;0.90;;;21.80;99.70;;;22.27;49.71;101379.75;4928657;28;97189;-44
2022/07/28 04:37:41;;;;;;;1.00;0.70;;;21.70;96.50;;;22.24;50.94;101374.59;4920251;28;97110;-47
2022/07/28 04:40:10;;;;;;;1.37;0.70;;;21.60;99.90;;;22.19;50.35;101382.16;4938377;28;97328;-46
2022/07/28 04:42:37;;;;;;;1.13;0.70;;;21.50;97.30;;;22.21;51.24;101380.19;4913971;28;96775;-44
2022/07/28 04:45:06;;;;;;;0.93;0.80;;;21.60;99.90;;;22.23;51.15;101383.63;4924530;28;97854;-47
2022/07/28 04:47:32;;;;;;;0.70;0.70;;;21.60;99.90;;;22.30;51.00;101377.84;4911921;28;98526;-47
2022/07/28 04:49:58;;;;;;;2.50;0.80;;;21.80;99.90;;;22.39;50.72;101383.38;4926545;28;97301;-45
2022/07/28 04:52:25;;;;;;;1.07;0.60;;;21.90;99.90;;;22.45;50.28;101387.44;4923766;28;97173;-44
2022/07/28 04:54:52;;;;;;;0.80;0.73;;;22.00;99.20;;;22.46;50.55;101387.34;4930017;28;97667;-46
2022/07/28 04:57:21;;;;;;;0.97;0.80;;;22.00;99.90;;;22.44;50.00;101383.03;4927233;28;96970;-48
2022/07/28 04:59:47;;;;;;;0.70;0.70;;;21.90;97.50;;;22.46;50.62;101378.41;4918423;28;97564;-49
2022/07/28 05:02:13;;;;;;;0.70;0.67;;;22.00;99.90;;;22.50;50.66;101387.94;4923400;28;97853;-45
2022/07/28 05:04:39;;;;;;;2.13;0.90;;;22.10;99.90;;;22.47;49.58;101380.13;4921039;28;97047;-51
2022/07/28 05:07:05;;;;;;;3.10;1.70;;;22.00;96.80;;;22.38;47.65;101378.97;4919403;28;97222;-45
2022/07/28 05:09:32;;;;;;;3.87;1.50;;;21.80;95.70;;;22.28;50.25;101380.63;4927804;28;96847;-49
2022/07/28 05:11:58;;;;;;;7.20;1.23;;;21.50;98.00;;;22.26;49.85;101383.41;4927984;28;96736;-47
2022/07/28 05:14:24;;;;;;;2.97;1.70;;;21.50;96.60;;;22.18;48.34;101380.44;4928371;28;97717;-48
2022/07/28 05:16:50;;;;;;;0.90;0.90;;;21.40;96.00;;;22.11;51.12;101384.53;4922648;28;96903;-46
2022/07/28 05:19:16;;;;;;;1.53;0.70;;;21.20;99.20;;;22.11;50.61;101384.53;4925378;28;97163;-46
2022/07/28 05:21:42;;;;;;;1.70;0.80;;;21.30;97.40;;;22.05;51.29;101379.59;4921144;28;97278;-47
2022/07/28 05:24:08;;;;;;;1.77;0.90;;;21.30;99.00;;;22.08;51.38;101378.53;4923150;28;97284;-47
2022/07/28 05:26:34;;;;;;;1.43;0.80;;;21.30;99.90;;;22.13;51.28;101382.63;4914477;28;97559;-47
2022/07/28 05:29:00;;;;;;;3.10;1.13;;;21.50;99.00;;;22.17;50.59;101386.78;4929601;28;97338;-45
2022/07/28 05:31:26;;;;;;;0.77;0.60;;;21.60;97.70;;;22.27;51.24;101369.00;4916278;28;97520;-46
2022/07/28 05:33:52;;;;;;;1.37;0.70;;;21.70;99.90;;;22.39;51.00;101371.75;4920130;28;97193;-47
2022/07/28 05:36:18;;;;;;;1.60;0.87;;;22.00;99.90;;;22.43;49.84;101373.28;4918849;28;97169;-51
2022/07/28 05:38:43;;;;;;;1.33;0.70;;;22.00;96.60;;;22.50;50.77;101380.75;4920176;28;97429;-48
2022/07/28 05:41:09;;;;;;;1.10;0.70;;;22.10;99.90;;;22.49;49.84;101378.19;4938825;28;97575;-47
2022/07/28 05:43:36;;;;;;;3.23;1.20;;;22.10;97.70;;;22.51;48.01;101376.22;4922505;28;97295;-46
2022/07/28 05:46:03;;;;;;;4.60;0.90;;;22.10;95.20;;;22.37;49.39;101373.69;4920575;28;96969;-44
2022/07/28 05:48:29;;;;;;;3.63;1.30;;;21.80;96.80;;;22.42;49.16;101374.22;4920880;28;97222;-46
2022/07/28 05:50:56;;;;;;;1.03;0.67;;;21.80;96.00;;;22.42;49.83;101371.53;4943646;28;97577;-47
2022/07/28 05:53:22;;;;;;;0.90;0.77;;;21.90;97.70;;;22.46;50.28;101371.19;4928308;28;97311;-54
2022/07/28 05:55:49;;;;;;;1.43;0.80;;;22.00;98.90;;;22.41;50.01;101369.81;4926487;28;96649;-45
2022/07/28 05:58:15;;;;;;;5.57;1.60;;;21.90;97.40;;;22.33;46.78;101369.53;4920304;28;97421;-47
2022/07/28 06:00:40;;;;;;;2.90;1.33;;;21.70;95.10;;;22.32;48.83;101371.38;4931229;28;97531;-44
2022/07/28 06:03:06;;;;;;;2.03;1.00;;;21.70;95.70;;;22.34;49.29;101368.56;4927623;28;98581;-44
2022/07/28 06:05:33;;;;;;;2.30;0.80;;;21.80;97.90;;;22.31;50.25;101363.41;4931504;28;96689;-46
2022/07/28 06:07:59;;;;;;;2.87;1.20;;;21.70;97.40;;;22.27;48.79;101362.75;4933195;28;97644;-45
2022/07/28 06:10:57;;;;;;;6.03;1.70;;;21.60;95.90;;;22.22;45.07;101373.84;4918409;28;98602;-46
2022/07/28 06:13:14;;;;;;;0.60;0.60;;;21.60;95.60;;;22.21;50.65;101369.47;4935408;28;97013;-45
2022/07/28 06:15:41;;;;;;;5.00;1.73;;;21.60;98.10;;;22.19;50.04;101366.03;4928830;28;97007;-47
2022/07/28 06:18:07;;;;;;;3.70;1.43;;;21.60;97.00;;;22.23;48.72;101366.66;4920929;28;98331;-47
2022/07/28 06:20:33;;;;;;;4.23;1.20;;;21.60;96.30;;;22.22;50.73;101371.16;4924437;28;97364;-46
2022/07/28 06:22:59;;;;;;;4.00;1.80;;;21.60;98.40;;;22.18;43.92;101369.69;4928217;28;97438;-44
2022/07/28 06:25:27;;;;;;;3.93;1.73;;;21.60;95.30;;;22.10;47.61;101377.44;4923431;28;96420;-48
2022/07/28 06:27:59;;;;;;;5.80;1.47;;;21.40;96.00;;;22.13;51.23;101374.56;4925595;28;97207;-45
2022/07/28 06:30:26;;;;;;;1.53;0.73;;;21.50;99.90;;;22.20;51.09;101372.25;4926622;28;97454;-44
2022/07/28 06:32:52;;;;;;;2.27;0.60;;;21.60;99.60;;;22.24;51.32;101361.16;4917627;28;99545;-46
2022/07/28 06:35:18;;;;;;;2.63;1.43;;;21.80;99.90;;;22.29;47.95;101366.22;4924460;28;96725;-46
2022/07/28 06:37:47;;;;;;;1.20;0.67;;;21.80;96.50;;;22.21;49.09;101369.47;4926427;28;97040;-44
2022/07/28 06:40:14;;;;;;;4.87;2.07;;;21.70;97.30;;;21.99;43.82;101363.91;4923006;28;98513;-44
2022/07/28 06:42:42;;;;;;;4.63;1.63;;;21.40;95.90;;;21.84;45.95;101376.59;4930808;28;97340;-44
2022/07/28 06:45:10;;;;;;;5.83;1.63;;;21.10;96.30;;;21.64;44.72;101377.16;4934377;28;96718;-45
2022/07/28 06:47:37;;;;;;;4.53;1.50;;;21.00;96.60;;;21.50;45.12;101372.75;4914557;28;97297;-48
2022/07/28 06:50:05;;;;;;;5.00;1.77;;;20.80;96.70;;;21.49;45.98;101376.41;4936145;28;98488;-47
2022/07/28 06:52:32;;;;;;;4.43;1.80;;;20.80;97.10;;;21.42;45.22;101369.78;4924604;28;97295;-46
2022/07/28 06:54:59;;;;;;;3.17;1.40;;;20.80;96.90;;;21.40;48.39;101366.31;4932393;28;96968;-44
2022/07/28 06:57:26;;;;;;;1.47;0.83;;;20.70;97.60;;;21.49;52.17;101368.34;4922141;28;97665;-44
2022/07/28 06:59:53;;;;;;;1.63;0.70;;;20.80;99.90;;;21.65;52.57;101370.81;4932700;28;97613;-47
2022/07/28 07:02:19;;;;;;;1.23;0.70;;;21.00;99.90;;;21.89;51.93;101377.13;4925225;28;97581;-44
2022/07/28 07:04:45;;;;;;;1.20;0.70;;;21.50;99.90;;;22.07;51.71;101372.28;4931349;28;97155;-44
2022/07/28 07:07:11;;;;;;;2.23;0.70;;;21.80;99.90;;;22.24;51.26;101369.22;4917767;28;96989;-47
2022/07/28 07:09:37;;;;;;;4.07;1.67;;;22.00;99.90;;;22.40;47.94;101371.63;4931366;28;96662;-49
2022/07/28 07:12:04;;;;;;;5.20;1.20;;;22.20;97.50;;;22.52;48.23;101380.63;4932271;28;97695;-46
2022/07/28 07:14:30;;;;;;;0.50;0.50;;;22.30;96.50;;;22.63;50.31;101375.31;4940371;28;97037;-45
2022/07/28 07:16:55;;;;;;;3.17;0.60;;;22.40;99.90;;;22.70;50.08;101381.94;4935931;28;97020;-49
2022/07/28 07:19:21;;;;;;;1.20;0.60;;;22.50;99.90;;;22.78;48.61;101368.78;4936330;28;97066;-46
2022/07/28 07:21:48;;;;;;;1.33;0.73;;;22.60;96.50;;;22.77;49.28;101367.06;4926715;28;101351;-46
2022/07/28 07:24:14;;;;;;;5.30;1.73;;;22.50;98.50;;;22.72;42.75;101368.41;4937272;28;96775;-45
2022/07/28 07:26:40;;;;;;;1.30;0.60;;;22.40;94.50;;;22.76;49.65;101369.88;4915675;28;97252;-44
2022/07/28 07:29:07;;;;;;;1.07;0.70;;;22.40;99.90;;;22.79;49.53;101366.94;4931534;28;96799;-43
2022/07/28 07:31:35;;;;;;;1.37;0.70;;;22.50;99.20;;;22.87;49.52;101363.72;4933996;28;97235;-44
2022/07/28 07:34:01;;;;;;;0.70;0.67;;;22.60;99.80;;;22.93;48.54;101361.41;4932049;28;96988;-44
2022/07/28 07:36:27;;;;;;;1.50;0.67;;;22.70;97.60;;;22.92;49.27;101357.00;4922474;28;96743;-45
2022/07/28 07:38:54;;;;;;;5.50;1.50;;;22.60;99.30;;;22.83;42.48;101350.47;4930160;28;96867;-43
2022/07/28 07:41:20;;;;;;;1.40;0.70;;;22.50;94.40;;;22.90;49.33;101350.91;4937385;28;97258;-44
2022/07/28 07:43:46;;;;;;;1.10;0.80;;;22.60;99.70;;;22.96;49.41;101350.41;4926660;28;96778;-46
2022/07/28 07:46:13;;;;;;;0.93;0.53;;;22.70;99.50;;;22.97;49.31;101346.75;4930846;28;97047;-44
2022/07/28 07:48:38;;;;;;;0.57;0.57;;;22.80;99.40;;;23.02;49.50;101354.47;4932285;28;97269;-44
2022/07/28 07:51:05;;;;;;;0.77;0.70;;;23.00;99.30;;;23.13;48.99;101357.19;4930733;28;105414;-46
2022/07/28 07:53:30;;;;;;;3.47;1.20;;;23.00;99.10;;;23.15;42.49;101349.88;4930087;28;99552;-49
2022/07/28 07:55:56;;;;;;;5.90;1.43;;;23.00;93.90;;;23.06;43.07;101347.88;4926118;28;97055;-47
2022/07/28 07:58:22;;;;;;;1.30;0.80;;;22.70;93.70;;;23.06;48.72;101347.88;4908207;28;104146;-55
2022/07/28 08:00:48;;;;;;;4.47;1.23;;;22.70;99.00;;;23.05;42.51;101343.47;4925339;28;97823;-45
2022/07/28 08:03:15;;;;;;;1.10;0.80;;;22.80;94.50;;;23.10;48.85;101343.97;4928614;28;96869;-47
2022/07/28 08:05:42;;;;;;;1.00;0.73;;;22.80;99.10;;;23.15;48.78;101349.88;4923829;28;96780;-46
2022/07/28 08:08:08;;;;;;;5.50;1.80;;;22.90;98.80;;;23.08;42.29;101343.22;4917916;28;97650;-48
2022/07/28 08:10:36;;;;;;;4.13;1.60;;;22.80;94.10;;;22.97;41.40;101337.81;4925040;28;96995;-48
2022/07/28 08:13:05;;;;;;;5.60;3.13;;;22.60;93.60;;;22.96;47.94;101338.78;4922126;28;97462;-49
2022/07/28 08:15:31;;;;;;;5.50;1.73;;;22.50;97.30;;;22.97;45.11;101343.19;4924891;28;97335;-47
2022/07/28 08:17:57;;;;;;;1.00;0.70;;;22.60;94.60;;;23.01;49.07;101340.16;4926480;28;98041;-48
2022/07/28 08:20:23;;;;;;;1.03;0.83;;;22.70;99.40;;;23.06;49.07;101329.03;4925548;28;97330;-46
2022/07/28 08:22:55;;;;;;;0.70;0.60;;;22.80;99.00;;;23.08;49.14;101333.31;4920637;28;98183;-45
2022/07/28 08:25:22;;;;;;;0.63;0.60;;;23.00;99.20;;;23.17;48.83;101334.47;4922216;28;97210;-46
2022/07/28 08:27:48;;;;;;;1.20;0.80;;;23.00;99.00;;;23.21;48.54;101327.00;4919988;28;103072;-46
2022/07/28 08:30:17;;;;;;;1.33;0.80;;;23.10;98.80;;;23.25;48.61;101323.94;4918242;28;98874;-48
2022/07/28 08:32:44;;;;;;;0.57;0.50;;;23.20;98.90;;;23.23;48.68;101331.28;4920560;28;97116;-48
2022/07/28 08:35:10;;;;;;;3.77;1.40;;;23.20;98.80;;;23.28;42.18;101329.06;4926794;28;96843;-46
2022/07/28 08:37:39;;;;;;;0.90;0.80;;;23.20;93.90;;;23.33;48.35;101321.50;4915049;28;97307;-46
2022/07/28 08:40:13;;;;;;;1.10;0.80;;;23.20;98.50;;;23.37;47.56;101328.34;4930453;28;98035;-46
2022/07/28 08:43:02;;;;;;;2.90;1.00;;;23.30;97.70;;;23.43;45.64;101311.75;4922633;28;96993;-47
2022/07/28 08:45:30;;;;;;;1.37;0.80;;;23.30;94.10;;;23.43;48.00;101317.13;4915294;28;97531;-44
2022/07/28 08:47:58;;;;;;;1.67;0.82;;;23.30;97.80;;;23.39;48.29;101310.25;4916774;28;97568;-49
2022/07/28 08:50:24;;;;;;;2.10;0.90;;;23.30;98.40;;;23.43;47.91;101311.75;4914838;28;97443;-48
2022/07/28 08:52:51;;;;;;;1.37;0.70;;;23.30;97.80;;;23.41;48.33;101313.66;4931401;28;96859;-45
2022/07/28 08:55:27;;;;;;;0.70;0.60;;;23.30;98.40;;;23.42;48.17;101314.53;4925125;28;96959;-49
2022/07/28 08:57:56;;;;;;;1.47;0.70;;;23.40;98.40;;;23.43;48.23;101311.75;4917827;28;101544;-47
2022/07/28 09:00:23;;;;;;;0.87;0.83;;;23.40;98.40;;;23.33;48.49;101308.06;4926702;28;97256;-51
2022/07/28 09:02:50;;;;;;;0.57;0.50;;;23.40;98.40;;;23.39;48.14;101310.25;4924272;28;97299;-47
2022/07/28 09:05:19;;;;;;;3.10;1.20;;;23.40;98.30;;;23.45;40.71;101303.53;4925687;28;97844;-44
2022/07/28 09:07:49;;;;;;;1.33;0.80;;;23.40;92.80;;;23.36;46.64;101310.50;4911820;28;99961;-45
2022/07/28 09:10:16;;;;;;;1.47;0.70;;;23.30;97.20;;;23.44;47.84;101305.38;4924258;28;97065;-44
2022/07/28 09:12:42;;;;;;;3.13;1.10;;;23.40;98.00;;;23.49;46.08;101299.63;4917661;28;97099;-44
2022/07/28 09:15:12;;;;;;;1.60;0.80;;;23.40;94.90;;;23.35;48.35;101308.78;4919934;28;97012;-46
2022/07/28 09:17:39;;;;;;;1.50;1.00;;;23.40;98.20;;;23.27;48.63;101300.44;4924216;28;98017;-45
2022/07/28 09:20:06;;;;;;;2.60;0.67;;;23.20;98.30;;;23.34;48.25;101296.31;4918868;28;97403;-46
2022/07/28 09:22:34;;;;;;;1.40;1.00;;;23.30;98.20;;;23.29;48.17;101293.13;4921619;28;103305;-44
2022/07/28 09:25:03;;;;;;;1.37;0.80;;;23.30;98.20;;;23.42;47.53;101301.91;4920485;28;97287;-45
2022/07/28 09:27:43;;;;;;;2.13;1.00;;;23.40;97.90;;;23.39;47.83;101294.09;4925432;28;97506;-45
2022/07/28 09:30:10;;;;;;;1.10;0.80;;;23.40;97.70;;;23.28;48.28;101291.38;4924804;28;96817;-46
2022/07/28 09:32:36;;;;;;;1.10;0.90;;;23.30;98.20;;;23.33;48.16;101291.91;4927959;28;97390;-47
2022/07/28 09:35:01;;;;;;;1.17;0.80;;;23.30;98.10;;;23.39;47.81;101290.53;4929122;28;97658;-49
2022/07/28 09:37:28;;;;;;;0.80;0.77;;;23.40;98.00;;;23.36;47.95;101299.72;4919741;28;107924;-49
2022/07/28 09:39:59;;;;;;;0.88;0.65;;;23.40;98.10;;;23.31;48.38;101291.16;4924744;28;98372;-48
2022/07/28 09:42:25;;;;;;;2.10;1.00;;;23.40;98.20;;;23.40;47.55;101290.41;4922452;28;97101;-51
2022/07/28 09:45:11;;;;;;;1.60;0.90;;;23.40;97.70;;;23.54;47.17;101293.84;4934542;28;96500;-47
2022/07/28 09:47:39;;;;;;;5.03;1.40;;;23.50;97.20;;;23.57;41.13;101285.53;4922677;28;96787;-45
2022/07/28 09:50:06;;;;;;;3.67;1.23;;;23.50;92.10;;;23.55;38.16;101287.47;4934452;28;99063;-47
2022/07/28 09:52:35;;;;;;;2.63;0.97;;;23.50;90.60;;;23.59;39.94;101289.00;4905637;28;99081;-46
2022/07/28 09:55:06;;;;;;;1.00;0.77;;;23.50;92.60;;;23.63;46.92;101290.47;4931534;28;97781;-49
2022/07/28 09:57:36;;;;;;;1.23;0.90;;;23.50;97.20;;;23.58;47.16;101276.50;4917973;28;97750;-48
2022/07/28 10:00:10;;;;;;;1.30;0.63;;;23.60;97.50;;;23.61;47.11;101289.72;4917802;28;97581;-51
2022/07/28 10:02:37;;;;;;;1.77;0.97;;;23.60;97.40;;;23.41;47.48;101286.75;4913969;28;96981;-49
2022/07/28 10:05:04;;;;;;;0.85;0.70;;;23.50;97.50;;;23.48;47.60;101281.75;4930441;28;97087;-47
2022/07/28 10:07:31;;;;;;;1.27;0.77;;;23.50;97.60;;;23.61;41.71;101278.97;4914081;28;97810;-45
2022/07/28 10:10:00;;;;;;;2.25;1.15;;;23.50;93.00;;;23.74;38.03;101271.59;4925865;28;98389;-48
2022/07/28 10:12:32;;;;;;;1.02;0.80;;;23.60;90.80;;;23.73;46.08;101268.06;4916375;28;98849;-45
2022/07/28 10:16:09;;;;;;;1.67;0.77;;;23.70;96.40;;;23.49;46.88;101266.44;4925217;28;97139;-45
2022/07/28 10:18:00;;;;;;;0.60;0.50;;;23.60;97.30;;;23.63;46.77;101258.16;4911666;28;102686;-47
2022/07/28 10:20:27;;;;;;;1.88;0.60;;;23.60;97.00;;;23.70;46.60;101259.34;4930739;28;97127;-47